Time;durP1;ratioP1;P1;durP2;ratioP2;P2;SDS_P1;SDS_P2;PMS_P1;PMS_P2;Temp;Humidity;BMP_temperature;BMP_pressure;BME280_temperature;BME280_humidity;BME280_pressure;Samples;Min_cycle;Max_cycle;Signal;HPM_P1;HPM_P2
2021/05/25 00:02:02;;;;;;;4.57;2.97;;;15.30;98.60;;;;;;4424432;32;20189;-71
2021/05/25 00:04:29;;;;;;;6.43;3.10;;;15.30;98.70;;;;;;4424037;32;20434;-69
2021/05/25 00:06:56;;;;;;;4.07;2.83;;;15.30;98.70;;;;;;4424111;32;20158;-70
2021/05/25 00:09:23;;;;;;;6.37;2.87;;;15.30;98.90;;;;;;4424153;32;20170;-70
2021/05/25 00:11:50;;;;;;;5.97;3.10;;;15.30;99.30;;;;;;4424288;32;20154;-70
2021/05/25 00:14:21;;;;;;;5.43;3.03;;;15.30;99.30;;;;;;4424092;32;20147;-71
2021/05/25 00:16:49;;;;;;;7.07;3.03;;;15.30;99.30;;;;;;4424287;32;20541;-71
2021/05/25 00:19:17;;;;;;;4.57;2.83;;;15.30;99.50;;;;;;4423806;32;20158;-71
2021/05/25 00:21:45;;;;;;;5.03;3.00;;;15.40;99.30;;;;;;4423944;32;20200;-71
2021/05/25 00:24:12;;;;;;;4.33;3.03;;;15.40;99.40;;;;;;4424690;32;20405;-71
2021/05/25 00:26:39;;;;;;;7.63;3.33;;;15.40;99.50;;;;;;4423791;32;20146;-71
2021/05/25 00:29:06;;;;;;;6.13;3.00;;;15.30;99.20;;;;;;4423591;32;20230;-71
2021/05/25 00:31:33;;;;;;;5.50;3.30;;;15.40;99.50;;;;;;4422949;32;20162;-70
2021/05/25 00:34:00;;;;;;;6.93;2.90;;;15.30;99.70;;;;;;4422932;32;20534;-70
2021/05/25 00:36:28;;;;;;;7.07;3.67;;;15.30;99.80;;;;;;4423325;32;20162;-70
2021/05/25 00:38:55;;;;;;;8.77;3.40;;;15.30;99.80;;;;;;4423463;32;20154;-69
2021/05/25 00:41:22;;;;;;;4.67;3.20;;;15.30;99.90;;;;;;4423449;32;20161;-69
2021/05/25 00:43:50;;;;;;;5.23;2.90;;;15.30;99.90;;;;;;4424969;32;20162;-71
2021/05/25 00:46:17;;;;;;;6.23;3.20;;;15.30;99.90;;;;;;4423499;32;20143;-70
2021/05/25 00:48:43;;;;;;;4.63;3.07;;;15.30;99.90;;;;;;4423422;32;20512;-70
2021/05/25 00:51:11;;;;;;;4.70;3.27;;;15.30;99.90;;;;;;4423336;32;20173;-70
2021/05/25 00:53:37;;;;;;;6.67;3.30;;;15.30;99.90;;;;;;4425130;32;20151;-70
2021/05/25 00:56:05;;;;;;;6.23;3.33;;;15.30;99.90;;;;;;4424817;32;20232;-70
2021/05/25 00:58:34;;;;;;;6.30;3.10;;;15.30;99.90;;;;;;4423710;32;20230;-71
2021/05/25 01:01:03;;;;;;;6.07;3.10;;;15.30;99.90;;;;;;4424703;32;20441;-70
2021/05/25 01:03:30;;;;;;;6.53;3.40;;;15.30;99.90;;;;;;4424755;32;20147;-70
2021/05/25 01:05:57;;;;;;;5.03;3.20;;;15.30;99.90;;;;;;4423305;32;20200;-70
2021/05/25 01:08:25;;;;;;;6.17;3.43;;;15.30;99.90;;;;;;4424755;32;20186;-70
2021/05/25 01:10:56;;;;;;;6.50;3.10;;;15.30;99.90;;;;;;4423205;32;20165;-70
2021/05/25 01:13:25;;;;;;;7.43;3.40;;;15.30;99.90;;;;;;4422916;32;20218;-70
2021/05/25 01:15:52;;;;;;;7.07;4.10;;;15.30;99.90;;;;;;4422459;32;20150;-70
2021/05/25 01:18:20;;;;;;;5.63;3.10;;;15.30;99.90;;;;;;4423123;32;20189;-70
2021/05/25 01:20:49;;;;;;;4.77;3.30;;;15.40;99.90;;;;;;4423096;32;20206;-70
2021/05/25 01:23:17;;;;;;;4.50;3.30;;;15.30;99.90;;;;;;4424483;32;20511;-70
2021/05/25 01:25:46;;;;;;;5.87;3.33;;;15.30;99.90;;;;;;4423397;32;20222;-70
2021/05/25 01:28:18;;;;;;;5.47;3.13;;;15.30;99.90;;;;;;4423020;32;20203;-71
2021/05/25 01:30:49;;;;;;;5.93;3.70;;;15.30;99.90;;;;;;4424563;32;20146;-71
2021/05/25 01:33:17;;;;;;;7.47;3.50;;;15.30;99.90;;;;;;4422122;32;20166;-71
2021/05/25 01:35:45;;;;;;;5.73;3.80;;;15.30;99.90;;;;;;4420787;32;20488;-71
2021/05/25 01:38:13;;;;;;;6.73;4.00;;;15.20;99.90;;;;;;4421951;32;20167;-71
2021/05/25 01:40:41;;;;;;;4.17;3.37;;;15.30;99.90;;;;;;4421812;32;20196;-71
2021/05/25 01:43:08;;;;;;;4.77;3.40;;;15.20;99.90;;;;;;4421929;32;20234;-71
2021/05/25 01:45:37;;;;;;;5.70;3.63;;;15.10;99.90;;;;;;4421864;32;20469;-71
2021/05/25 01:48:07;;;;;;;4.33;3.53;;;15.10;99.90;;;;;;4420268;32;20200;-72
2021/05/25 01:50:36;;;;;;;6.10;4.00;;;15.00;99.90;;;;;;4421061;32;20212;-72
2021/05/25 01:53:07;;;;;;;5.67;3.73;;;15.00;99.90;;;;;;4425437;32;20203;-72
2021/05/25 01:55:39;;;;;;;6.20;3.50;;;15.00;99.90;;;;;;4425777;32;20246;-71
2021/05/25 01:58:16;;;;;;;6.87;4.13;;;15.00;99.90;;;;;;4410510;32;20151;-71
2021/05/25 02:00:49;;;;;;;6.23;3.83;;;14.90;99.90;;;;;;4412283;32;20225;-72
2021/05/25 02:03:17;;;;;;;6.40;4.20;;;14.80;99.90;;;;;;4410654;32;20160;-76
2021/05/25 02:05:47;;;;;;;6.77;4.20;;;14.80;99.90;;;;;;4409812;32;20158;-76
2021/05/25 02:08:16;;;;;;;6.63;4.03;;;14.80;99.90;;;;;;4412207;32;20433;-76
2021/05/25 02:10:49;;;;;;;6.17;4.20;;;14.70;99.90;;;;;;4412010;32;20469;-78
2021/05/25 02:13:23;;;;;;;6.17;4.23;;;14.60;99.90;;;;;;4410275;32;20171;-77
2021/05/25 02:15:53;;;;;;;6.20;4.20;;;14.50;99.90;;;;;;4410720;32;20479;-77
2021/05/25 02:18:32;;;;;;;6.37;4.30;;;14.40;99.90;;;;;;4409304;32;20174;-76
2021/05/25 02:21:05;;;;;;;7.17;4.03;;;14.30;99.90;;;;;;4409979;32;20411;-75
2021/05/25 02:23:33;;;;;;;6.13;4.20;;;14.20;99.90;;;;;;4410139;32;20411;-76
2021/05/25 02:26:00;;;;;;;7.67;4.27;;;14.00;99.90;;;;;;4410521;32;20281;-76
2021/05/25 02:28:27;;;;;;;6.23;4.30;;;14.00;99.90;;;;;;4410155;32;20155;-76
2021/05/25 02:30:54;;;;;;;6.67;3.90;;;13.90;99.90;;;;;;4410205;32;20510;-76
2021/05/25 02:33:23;;;;;;;7.67;4.50;;;13.80;99.90;;;;;;4410073;32;20148;-76
2021/05/25 02:35:52;;;;;;;5.60;4.50;;;13.70;99.90;;;;;;4410086;32;20147;-77
2021/05/25 02:38:20;;;;;;;6.40;4.60;;;13.70;99.90;;;;;;4414732;32;20543;-79
2021/05/25 02:40:48;;;;;;;7.70;4.50;;;13.60;99.90;;;;;;4426513;32;20193;-79
2021/05/25 02:43:17;;;;;;;6.30;4.60;;;13.50;99.90;;;;;;4425466;32;20197;-78
2021/05/25 02:45:44;;;;;;;7.63;4.83;;;13.50;99.90;;;;;;4424563;32;20155;-79
2021/05/25 02:48:12;;;;;;;8.33;4.73;;;13.50;99.90;;;;;;4425285;32;20222;-79
2021/05/25 02:50:39;;;;;;;7.77;4.90;;;13.50;99.90;;;;;;4425259;32;20205;-78
2021/05/25 02:53:07;;;;;;;6.70;4.83;;;13.40;99.90;;;;;;4424519;32;20221;-78
2021/05/25 02:55:36;;;;;;;7.73;4.77;;;13.40;99.90;;;;;;4426593;32;20158;-78
2021/05/25 02:58:05;;;;;;;9.60;5.17;;;13.30;99.90;;;;;;4425318;32;20438;-78
2021/05/25 03:00:36;;;;;;;7.20;5.10;;;13.30;99.90;;;;;;4425011;32;20154;-78
2021/05/25 03:03:04;;;;;;;8.03;5.17;;;13.30;99.90;;;;;;4424064;32;20400;-78
2021/05/25 03:05:32;;;;;;;7.73;4.80;;;13.20;99.90;;;;;;4425190;32;20209;-78
2021/05/25 03:08:00;;;;;;;7.90;5.33;;;13.20;99.90;;;;;;4424960;32;20218;-78
2021/05/25 03:10:30;;;;;;;6.17;5.03;;;13.20;99.90;;;;;;4424300;32;20200;-78
2021/05/25 03:12:57;;;;;;;8.07;5.43;;;13.20;99.90;;;;;;4424783;32;20162;-77
2021/05/25 03:15:30;;;;;;;9.23;5.93;;;13.10;99.90;;;;;;4424839;32;20149;-77
2021/05/25 03:17:57;;;;;;;7.70;5.80;;;13.20;99.90;;;;;;4426220;32;20195;-78
2021/05/25 03:20:25;;;;;;;8.60;5.80;;;13.20;99.90;;;;;;4426261;32;20150;-78
2021/05/25 03:22:52;;;;;;;8.47;5.90;;;13.20;99.90;;;;;;4424867;32;20391;-78
2021/05/25 03:25:19;;;;;;;8.37;5.90;;;13.20;99.90;;;;;;4424755;32;20177;-78
2021/05/25 03:27:47;;;;;;;9.30;5.93;;;13.20;99.90;;;;;;4424692;32;20142;-78
2021/05/25 03:30:18;;;;;;;8.17;5.50;;;13.20;99.90;;;;;;4424595;32;20174;-78
2021/05/25 03:32:45;;;;;;;8.53;5.50;;;13.20;99.90;;;;;;4424662;32;20445;-78
2021/05/25 03:35:14;;;;;;;5.87;5.33;;;13.20;99.90;;;;;;4426054;32;20154;-78
2021/05/25 03:37:41;;;;;;;8.03;6.13;;;13.20;99.90;;;;;;4424558;32;20448;-78
2021/05/25 03:40:10;;;;;;;6.60;5.30;;;13.30;99.90;;;;;;4424509;32;20220;-78
2021/05/25 03:42:37;;;;;;;7.57;5.70;;;13.30;99.90;;;;;;4424488;32;20390;-78
2021/05/25 03:45:06;;;;;;;7.37;5.30;;;13.30;99.90;;;;;;4424529;32;20171;-78
2021/05/25 03:47:33;;;;;;;6.80;5.20;;;13.30;99.90;;;;;;4426010;32;20258;-79
2021/05/25 03:50:09;;;;;;;8.43;5.97;;;13.30;99.90;;;;;;4424601;32;20150;-79
2021/05/25 03:52:40;;;;;;;6.20;5.53;;;13.30;99.90;;;;;;4426054;32;20448;-78
2021/05/25 04:00:49;;;;;;;7.10;5.47;;;13.40;99.90;;;;;;4424508;32;20148;-79
2021/05/25 04:03:16;;;;;;;7.33;6.00;;;13.40;99.90;;;;;;4425840;32;20198;-80
2021/05/25 04:05:43;;;;;;;7.57;5.60;;;13.40;99.90;;;;;;4424224;32;20174;-81
2021/05/25 04:08:10;;;;;;;7.97;5.83;;;13.40;99.90;;;;;;4423479;32;20192;-81
2021/05/25 04:10:38;;;;;;;9.50;5.97;;;13.40;99.90;;;;;;4424257;32;20214;-82
2021/05/25 04:13:05;;;;;;;9.50;5.77;;;13.30;99.90;;;;;;4424567;32;20200;-80
2021/05/25 04:15:34;;;;;;;9.93;6.30;;;13.30;99.90;;;;;;4423836;32;20151;-80
2021/05/25 04:18:01;;;;;;;9.60;6.57;;;13.40;99.90;;;;;;4425631;32;20246;-81
2021/05/25 04:20:29;;;;;;;7.90;6.50;;;13.30;99.90;;;;;;4423428;32;20178;-81
2021/05/25 04:22:57;;;;;;;10.23;6.87;;;13.30;99.90;;;;;;4423575;32;20482;-80
2021/05/25 04:25:24;;;;;;;8.47;7.00;;;13.30;99.90;;;;;;4425511;32;20435;-81
2021/05/25 04:27:52;;;;;;;9.90;7.00;;;13.40;99.90;;;;;;4424800;32;20226;-81
2021/05/25 04:30:19;;;;;;;10.80;6.90;;;13.40;99.90;;;;;;4423822;32;20146;-81
2021/05/25 04:32:46;;;;;;;9.37;6.60;;;13.40;99.90;;;;;;4424626;32;20147;-80
2021/05/25 04:35:14;;;;;;;10.40;7.67;;;13.40;99.90;;;;;;4424659;32;20156;-80
2021/05/25 04:37:40;;;;;;;8.27;7.30;;;13.30;99.90;;;;;;4423814;32;20189;-81
2021/05/25 04:40:08;;;;;;;11.40;7.53;;;13.40;99.90;;;;;;4425190;32;20182;-80
2021/05/25 04:42:36;;;;;;;9.40;6.90;;;13.40;99.90;;;;;;4425098;32;20223;-80
2021/05/25 04:45:06;;;;;;;10.87;6.67;;;13.40;99.90;;;;;;4425522;32;20146;-80
2021/05/25 04:47:33;;;;;;;10.50;6.70;;;13.40;99.90;;;;;;4424963;32;20146;-79
2021/05/25 04:50:01;;;;;;;8.87;6.20;;;13.30;99.90;;;;;;4423716;32;20252;-79
2021/05/25 04:52:27;;;;;;;9.57;6.07;;;13.40;99.90;;;;;;4422947;32;20168;-78
2021/05/25 04:54:55;;;;;;;6.10;5.27;;;13.40;99.90;;;;;;4423383;32;20165;-79
2021/05/25 04:57:23;;;;;;;7.50;5.50;;;13.40;99.90;;;;;;4423399;32;20171;-78
2021/05/25 04:59:50;;;;;;;7.80;5.37;;;13.40;99.90;;;;;;4422765;32;20193;-78
2021/05/25 05:02:18;;;;;;;9.13;5.47;;;13.40;99.90;;;;;;4424263;32;20456;-78
2021/05/25 05:04:44;;;;;;;7.13;5.00;;;13.40;99.90;;;;;;4424805;32;20174;-79
2021/05/25 05:07:12;;;;;;;6.23;5.00;;;13.40;99.90;;;;;;4424070;32;20193;-78
2021/05/25 05:09:39;;;;;;;7.87;4.97;;;13.30;99.90;;;;;;4423326;32;20181;-78
2021/05/25 05:12:06;;;;;;;7.17;4.70;;;13.40;99.90;;;;;;4424264;32;20226;-78
2021/05/25 05:14:38;;;;;;;5.93;4.90;;;13.40;99.90;;;;;;4423458;32;20200;-78
2021/05/25 05:17:05;;;;;;;6.77;5.20;;;13.30;99.90;;;;;;4423562;32;20210;-80
2021/05/25 05:19:32;;;;;;;6.00;4.73;;;13.30;99.90;;;;;;4425118;32;20134;-80
2021/05/25 05:21:59;;;;;;;8.20;5.40;;;13.30;99.90;;;;;;4423312;32;20159;-80
2021/05/25 05:24:26;;;;;;;6.33;4.77;;;13.30;99.90;;;;;;4424832;32;20171;-80
2021/05/25 05:26:53;;;;;;;8.17;5.30;;;13.40;99.90;;;;;;4424952;32;20349;-81
2021/05/25 05:29:20;;;;;;;7.10;5.07;;;13.30;99.90;;;;;;4428307;32;20480;-80
2021/05/25 05:31:47;;;;;;;6.10;5.17;;;13.30;99.90;;;;;;4428370;32;20147;-80
2021/05/25 05:34:13;;;;;;;8.40;5.40;;;13.30;99.90;;;;;;4426449;32;20259;-78
2021/05/25 05:36:40;;;;;;;7.10;5.07;;;13.30;99.90;;;;;;4426548;32;20424;-79
2021/05/25 05:39:07;;;;;;;6.87;5.27;;;13.30;99.90;;;;;;4426531;32;20151;-80
2021/05/25 05:41:34;;;;;;;8.77;5.90;;;13.30;99.90;;;;;;4426316;32;20400;-80
2021/05/25 05:44:02;;;;;;;6.87;5.93;;;13.30;99.90;;;;;;4426408;32;20151;-81
2021/05/25 05:46:29;;;;;;;7.83;5.50;;;13.30;99.90;;;;;;4426408;32;20195;-80
2021/05/25 05:48:56;;;;;;;7.57;5.10;;;13.30;99.90;;;;;;4426610;32;20174;-79
2021/05/25 05:51:23;;;;;;;9.60;6.20;;;13.20;99.90;;;;;;4426260;32;20209;-78
2021/05/25 05:53:55;;;;;;;7.93;5.47;;;13.30;99.90;;;;;;4425824;32;20248;-76
2021/05/25 05:56:22;;;;;;;8.03;5.60;;;13.30;99.90;;;;;;4427733;32;20170;-77
2021/05/25 05:58:50;;;;;;;9.07;5.50;;;13.40;99.90;;;;;;4427612;32;20226;-78
2021/05/25 06:01:18;;;;;;;6.80;5.43;;;13.30;99.90;;;;;;4427522;32;20155;-78
2021/05/25 06:03:45;;;;;;;6.53;5.13;;;13.40;99.90;;;;;;4427639;32;20266;-78
2021/05/25 06:06:13;;;;;;;6.63;5.20;;;13.30;99.90;;;;;;4427034;32;20198;-78
2021/05/25 06:08:41;;;;;;;7.53;5.20;;;13.40;99.90;;;;;;4426554;32;20193;-77
2021/05/25 06:11:09;;;;;;;7.93;5.33;;;13.40;99.90;;;;;;4426030;32;20396;-77
2021/05/25 06:13:36;;;;;;;6.53;5.20;;;13.50;99.90;;;;;;4426252;32;20201;-78
2021/05/25 06:16:04;;;;;;;6.60;5.00;;;13.60;99.90;;;;;;4412910;32;20159;-78
2021/05/25 06:18:33;;;;;;;6.13;4.60;;;13.50;99.90;;;;;;4426574;32;20332;-78
2021/05/25 06:21:01;;;;;;;7.90;4.90;;;13.60;99.90;;;;;;4426319;32;20524;-78
2021/05/25 06:23:30;;;;;;;5.63;4.40;;;13.60;99.90;;;;;;4425755;32;20188;-78
2021/05/25 06:26:00;;;;;;;6.23;4.90;;;13.60;99.90;;;;;;4426773;32;20159;-78
2021/05/25 06:28:30;;;;;;;5.83;4.53;;;13.70;99.90;;;;;;4427561;32;20140;-78
2021/05/25 06:30:57;;;;;;;5.37;4.70;;;13.70;99.90;;;;;;4427387;32;20162;-78
2021/05/25 06:33:25;;;;;;;6.27;4.67;;;13.70;99.90;;;;;;4424976;32;20150;-77
2021/05/25 06:35:52;;;;;;;6.20;4.60;;;13.60;99.90;;;;;;4425391;32;20181;-78
2021/05/25 06:38:19;;;;;;;6.33;4.27;;;13.70;99.90;;;;;;4425533;32;20154;-78
2021/05/25 06:40:46;;;;;;;8.30;4.03;;;13.70;99.90;;;;;;4425648;32;20243;-77
2021/05/25 06:43:13;;;;;;;5.27;4.33;;;13.70;99.90;;;;;;4425435;32;20208;-77
2021/05/25 06:45:41;;;;;;;6.53;4.67;;;13.70;99.90;;;;;;4426779;32;20139;-77
2021/05/25 06:48:09;;;;;;;6.93;4.87;;;13.70;99.90;;;;;;4426034;32;20425;-77
2021/05/25 06:50:36;;;;;;;7.00;4.60;;;13.80;99.90;;;;;;4426258;32;20523;-77
2021/05/25 06:53:04;;;;;;;7.80;4.53;;;13.80;99.90;;;;;;4426858;32;20404;-76
2021/05/25 06:55:31;;;;;;;6.37;4.43;;;13.80;99.90;;;;;;4425199;32;20479;-77
2021/05/25 06:57:58;;;;;;;5.30;4.47;;;13.80;99.90;;;;;;4425274;32;20134;-77
2021/05/25 07:00:26;;;;;;;5.10;4.20;;;13.80;99.90;;;;;;4425059;32;20199;-88
2021/05/25 07:02:57;;;;;;;5.60;4.97;;;13.80;99.90;;;;;;4412263;32;20230;-77
2021/05/25 07:05:24;;;;;;;6.53;5.20;;;13.80;99.90;;;;;;4425142;32;20155;-77
2021/05/25 07:07:51;;;;;;;7.30;4.80;;;13.90;99.90;;;;;;4425151;32;20496;-77
2021/05/25 07:10:18;;;;;;;7.33;4.77;;;14.00;99.90;;;;;;4425109;32;20166;-77
2021/05/25 07:12:45;;;;;;;5.97;4.47;;;14.00;99.90;;;;;;4424942;32;20240;-78
2021/05/25 07:15:13;;;;;;;6.83;4.97;;;14.00;99.90;;;;;;4425518;32;20184;-78
2021/05/25 07:17:56;;;;;;;7.63;5.30;;;14.10;99.90;;;;;;4425784;32;20188;-78
2021/05/25 07:20:25;;;;;;;6.23;4.67;;;14.10;99.90;;;;;;4424608;32;20202;-78
2021/05/25 07:22:53;;;;;;;8.23;5.10;;;14.10;99.90;;;;;;4425078;32;20159;-78
2021/05/25 07:25:25;;;;;;;6.00;4.93;;;14.30;99.90;;;;;;4425840;32;20456;-79
2021/05/25 07:27:53;;;;;;;8.20;4.97;;;14.40;99.90;;;;;;4425069;32;20341;-78
2021/05/25 07:30:20;;;;;;;7.33;4.67;;;14.50;99.90;;;;;;4424791;32;20519;-79
2021/05/25 07:32:47;;;;;;;6.80;4.37;;;14.60;99.90;;;;;;4424633;32;20174;-79
2021/05/25 07:35:16;;;;;;;7.97;4.33;;;14.70;99.90;;;;;;4425332;32;20182;-81
2021/05/25 07:37:43;;;;;;;5.40;4.07;;;14.80;99.90;;;;;;4424397;32;20198;-80
2021/05/25 07:40:11;;;;;;;5.80;4.33;;;14.90;99.90;;;;;;4424357;32;20158;-79
2021/05/25 07:42:38;;;;;;;6.90;4.17;;;14.90;99.90;;;;;;4425536;32;20421;-78
2021/05/25 07:45:06;;;;;;;5.37;4.03;;;15.00;99.90;;;;;;4425739;32;20182;-80
2021/05/25 07:47:33;;;;;;;4.40;3.97;;;15.00;99.90;;;;;;4424244;32;20147;-80
2021/05/25 07:50:12;;;;;;;5.47;3.60;;;15.00;99.90;;;;;;4409895;32;20404;-81
2021/05/25 07:52:52;;;;;;;4.77;3.67;;;15.10;99.90;;;;;;4425879;32;20464;-76
2021/05/25 07:55:26;;;;;;;4.53;3.67;;;15.30;99.90;;;;;;4424049;32;20177;-78
2021/05/25 07:57:54;;;;;;;4.53;3.50;;;15.30;99.90;;;;;;4425041;32;20213;-77
2021/05/25 08:00:21;;;;;;;5.27;3.80;;;15.20;99.90;;;;;;4424058;32;20204;-75
2021/05/25 08:02:48;;;;;;;5.40;3.90;;;15.40;99.90;;;;;;4425661;32;20390;-76
2021/05/25 08:05:17;;;;;;;5.40;3.87;;;15.70;99.90;;;;;;4424202;32;20151;-77
2021/05/25 08:07:45;;;;;;;5.37;3.60;;;16.10;99.90;;;;;;4424365;32;20189;-77
2021/05/25 08:10:13;;;;;;;4.57;3.40;;;16.20;99.90;;;;;;4424916;32;20471;-79
2021/05/25 08:12:41;;;;;;;5.07;3.40;;;16.30;99.90;;;;;;4423668;32;20159;-78
2021/05/25 08:15:09;;;;;;;5.13;3.33;;;16.50;99.90;;;;;;4425365;32;20155;-77
2021/05/25 08:20:23;;;;;;;5.57;3.23;;;16.60;99.90;;;;;;4425274;32;20185;-77
2021/05/25 08:23:12;;;;;;;3.83;3.40;;;16.80;99.90;;;;;;4424077;32;20425;-78
2021/05/25 08:25:42;;;;;;;5.13;3.23;;;16.80;99.90;;;;;;4422849;32;20139;-76
2021/05/25 08:28:11;;;;;;;3.87;3.27;;;16.60;99.90;;;;;;4425037;32;20521;-75
2021/05/25 08:30:40;;;;;;;5.97;2.73;;;16.40;99.90;;;;;;4423601;32;20418;-76
2021/05/25 08:33:11;;;;;;;6.00;3.03;;;16.00;99.90;;;;;;4425600;32;20220;-75
2021/05/25 08:35:40;;;;;;;4.60;3.03;;;15.90;99.90;;;;;;4423812;32;20399;-75
2021/05/25 08:38:09;;;;;;;4.87;3.00;;;16.00;99.90;;;;;;4424259;32;20172;-74
2021/05/25 08:40:37;;;;;;;5.37;3.10;;;16.10;99.90;;;;;;4424400;32;20193;-76
2021/05/25 08:43:05;;;;;;;4.90;3.10;;;16.30;99.90;;;;;;4423156;32;20185;-75
2021/05/25 08:45:33;;;;;;;5.20;2.93;;;16.30;99.90;;;;;;4424126;32;20191;-75
2021/05/25 08:48:02;;;;;;;4.77;2.47;;;16.40;99.90;;;;;;4423451;32;20154;-73
2021/05/25 08:50:56;;;;;;;6.57;3.00;;;16.50;99.90;;;;;;4412333;32;20181;-75
2021/05/25 08:53:23;;;;;;;4.83;2.80;;;16.30;99.90;;;;;;4425223;32;20146;-75
2021/05/25 08:55:51;;;;;;;4.67;3.20;;;16.20;99.90;;;;;;4422905;32;20154;-73
2021/05/25 08:58:20;;;;;;;4.73;2.90;;;16.10;99.90;;;;;;4422481;32;20139;-73
2021/05/25 09:00:48;;;;;;;5.63;3.20;;;16.20;99.90;;;;;;4421543;32;20400;-73
2021/05/25 09:03:16;;;;;;;4.47;3.30;;;16.20;99.90;;;;;;4422737;32;20476;-75
2021/05/25 09:05:56;;;;;;;3.60;3.00;;;16.10;99.90;;;;;;4423533;32;20143;-73
2021/05/25 09:08:23;;;;;;;5.40;3.20;;;16.20;99.90;;;;;;4424920;32;20188;-75
2021/05/25 09:10:52;;;;;;;5.13;3.13;;;16.40;99.90;;;;;;4424665;32;20498;-75
2021/05/25 09:13:23;;;;;;;4.23;3.00;;;16.60;99.90;;;;;;4423299;32;20162;-73
2021/05/25 09:15:55;;;;;;;5.33;2.53;;;16.50;99.90;;;;;;4423730;32;20200;-74
2021/05/25 09:18:25;;;;;;;3.63;2.73;;;16.40;99.90;;;;;;4424583;32;20158;-74
2021/05/25 09:21:04;;;;;;;3.60;2.60;;;16.30;99.90;;;;;;4424025;32;20147;-74
2021/05/25 09:23:34;;;;;;;6.87;3.07;;;16.10;99.90;;;;;;4425450;32;20170;-75
2021/05/25 09:26:13;;;;;;;3.30;2.80;;;16.10;99.90;;;;;;4424287;32;20174;-74
2021/05/25 09:28:56;;;;;;;5.00;2.60;;;16.20;99.90;;;;;;4424208;32;20154;-75
2021/05/25 09:31:42;;;;;;;4.60;2.90;;;16.00;99.90;;;;;;4424878;32;20174;-73
2021/05/25 09:34:17;;;;;;;5.33;3.03;;;16.10;99.90;;;;;;4423282;32;20500;-73
2021/05/25 09:36:59;;;;;;;4.73;3.30;;;16.10;99.90;;;;;;4423605;32;20197;-72
2021/05/25 09:39:31;;;;;;;4.13;3.10;;;15.90;99.90;;;;;;4423593;32;20412;-73
2021/05/25 09:42:04;;;;;;;6.07;3.57;;;16.00;99.90;;;;;;4425144;32;20154;-74
2021/05/25 09:44:32;;;;;;;6.57;3.97;;;15.90;99.90;;;;;;4425478;32;20147;-72
2021/05/25 09:47:01;;;;;;;8.87;4.53;;;15.80;99.90;;;;;;4424358;32;20150;-73
2021/05/25 09:49:28;;;;;;;6.77;4.63;;;15.80;99.90;;;;;;4423341;32;20163;-73
2021/05/25 09:52:02;;;;;;;5.20;4.43;;;15.70;99.90;;;;;;4423517;32;20177;-73
2021/05/25 09:54:31;;;;;;;7.47;4.50;;;15.80;99.90;;;;;;4423644;32;20155;-72
2021/05/25 09:57:00;;;;;;;8.23;5.00;;;15.90;99.90;;;;;;4424836;32;20182;-73
2021/05/25 09:59:28;;;;;;;6.40;5.07;;;15.90;99.90;;;;;;4423586;32;20331;-73
2021/05/25 10:01:56;;;;;;;6.97;4.97;;;15.90;99.90;;;;;;4424998;32;20189;-72
2021/05/25 10:04:35;;;;;;;8.13;5.23;;;15.90;99.90;;;;;;4425248;32;20151;-72
2021/05/25 10:07:03;;;;;;;7.23;5.00;;;15.90;99.90;;;;;;4423130;32;20194;-73
2021/05/25 10:09:29;;;;;;;6.37;4.97;;;16.00;99.90;;;;;;4423501;32;20139;-73
2021/05/25 10:11:59;;;;;;;5.93;4.80;;;16.10;99.90;;;;;;4423917;32;20146;-73
2021/05/25 10:14:26;;;;;;;7.13;5.40;;;16.20;99.90;;;;;;4426021;32;20455;-72
2021/05/25 10:16:54;;;;;;;8.10;5.20;;;16.70;99.90;;;;;;4426737;32;20155;-73
2021/05/25 10:21:48;;;;;;;5.73;4.90;;;18.10;99.90;;;;;;4426738;32;20194;-74
2021/05/25 10:24:16;;;;;;;7.47;5.50;;;18.20;99.90;;;;;;4426907;32;20194;-75
2021/05/25 10:26:44;;;;;;;8.53;5.17;;;18.70;99.90;;;;;;4426594;32;20166;-74
2021/05/25 10:29:12;;;;;;;6.80;4.80;;;19.30;99.90;;;;;;4426449;32;20158;-73
2021/05/25 10:31:40;;;;;;;6.03;4.73;;;20.10;99.90;;;;;;4426940;32;20203;-73
2021/05/25 10:34:19;;;;;;;7.10;4.50;;;20.70;99.90;;;;;;4426262;32;20442;-73
2021/05/25 10:36:49;;;;;;;5.57;4.73;;;20.80;99.90;;;;;;4426601;32;20139;-72
2021/05/25 10:39:29;;;;;;;6.30;4.77;;;21.10;99.90;;;;;;4426075;32;20155;-73
2021/05/25 10:42:14;;;;;;;6.67;4.70;;;21.60;98.60;;;;;;4426107;32;20208;-74
2021/05/25 10:44:48;;;;;;;7.20;4.63;;;21.70;95.90;;;;;;4427523;32;20147;-75
2021/05/25 10:47:21;;;;;;;5.70;4.70;;;21.40;96.60;;;;;;4426195;32;20174;-76
2021/05/25 10:49:56;;;;;;;5.50;4.50;;;21.70;95.70;;;;;;4426264;32;20423;-75
2021/05/25 10:52:24;;;;;;;6.03;4.70;;;21.60;96.10;;;;;;4426325;32;20166;-78
2021/05/25 10:54:54;;;;;;;4.83;4.17;;;21.80;94.80;;;;;;4426097;32;20171;-78
2021/05/25 10:57:47;;;;;;;6.60;4.30;;;21.10;96.40;;;;;;4426175;32;20159;-75
2021/05/25 11:00:41;;;;;;;6.40;4.53;;;20.80;97.10;;;;;;4426448;32;20150;-76
2021/05/25 11:03:11;;;;;;;5.20;4.30;;;20.60;97.70;;;;;;4425717;32;20167;-76
2021/05/25 11:05:39;;;;;;;5.30;4.30;;;20.80;98.20;;;;;;4426177;32;20155;-75
2021/05/25 11:08:09;;;;;;;5.30;4.10;;;21.00;96.70;;;;;;4426488;32;20162;-76
2021/05/25 11:10:39;;;;;;;5.60;4.03;;;20.90;95.40;;;;;;4427421;32;20193;-76
2021/05/25 11:13:15;;;;;;;6.37;3.47;;;21.10;96.10;;;;;;4424656;32;20182;-77
2021/05/25 11:16:09;;;;;;;4.70;3.40;;;22.20;94.80;;;;;;4424224;32;20158;-77
2021/05/25 11:18:59;;;;;;;6.90;3.60;;;23.00;87.50;;;;;;4425465;32;20499;-76
2021/05/25 11:24:33;;;;;;;4.43;3.12;;;23.50;82.90;;;;;;4424831;32;20210;-76
2021/05/25 11:27:07;;;;;;;3.53;2.77;;;23.70;78.20;;;;;;4425852;32;20143;-75
2021/05/25 11:29:37;;;;;;;3.40;3.00;;;23.20;76.50;;;;;;4412037;32;20256;-76
2021/05/25 11:32:13;;;;;;;5.17;3.20;;;23.30;77.00;;;;;;4425175;32;20154;-74
2021/05/25 11:34:41;;;;;;;5.22;3.00;;;23.50;75.60;;;;;;4425327;32;20541;-76
2021/05/25 11:37:11;;;;;;;4.18;2.85;;;24.10;78.40;;;;;;4425358;32;20192;-76
2021/05/25 11:39:38;;;;;;;3.12;2.60;;;24.90;74.70;;;;;;4426786;32;20221;-75
2021/05/25 11:42:07;;;;;;;3.95;2.60;;;25.40;70.00;;;;;;4426834;32;20151;-75
2021/05/25 11:44:41;;;;;;;4.15;2.60;;;26.20;67.20;;;;;;4425094;32;20143;-75
2021/05/25 11:47:08;;;;;;;5.18;2.78;;;26.40;62.10;;;;;;4426755;32;20175;-75
2021/05/25 11:49:43;;;;;;;4.80;2.42;;;26.40;65.30;;;;;;4425517;32;20139;-75
2021/05/25 11:52:20;;;;;;;3.65;2.28;;;25.90;58.00;;;;;;4425426;32;20487;-75
2021/05/25 11:54:48;;;;;;;2.85;2.40;;;26.00;59.10;;;;;;4427121;32;20166;-77
2021/05/25 11:57:29;;;;;;;4.78;2.70;;;24.50;64.10;;;;;;4425266;32;20143;-77
2021/05/25 11:59:58;;;;;;;4.05;2.62;;;24.60;64.80;;;;;;4425214;32;20147;-77
2021/05/25 12:02:30;;;;;;;4.10;2.45;;;24.60;63.60;;;;;;4425656;32;20166;-76
2021/05/25 12:05:07;;;;;;;3.40;2.40;;;24.50;64.10;;;;;;4426507;32;20178;-75
2021/05/25 12:07:35;;;;;;;3.55;2.60;;;24.20;64.50;;;;;;4425474;32;20422;-74
2021/05/25 12:10:05;;;;;;;4.05;2.20;;;23.50;64.20;;;;;;4425164;32;20214;-76
2021/05/25 12:12:33;;;;;;;3.83;2.43;;;23.10;67.70;;;;;;4424062;32;20154;-74
2021/05/25 12:15:29;;;;;;;4.43;2.50;;;22.90;69.40;;;;;;4424968;32;20185;-72
2021/05/25 12:18:00;;;;;;;2.43;2.00;;;22.40;70.50;;;;;;4425122;32;20151;-75
2021/05/25 12:20:40;;;;;;;4.00;2.27;;;22.40;70.70;;;;;;4426257;32;20247;-74
2021/05/25 12:23:15;;;;;;;3.87;2.47;;;21.80;72.50;;;;;;4425393;32;20214;-74
2021/05/25 12:25:49;;;;;;;3.37;2.10;;;21.70;73.60;;;;;;4426381;32;20161;-74
2021/05/25 12:28:23;;;;;;;5.07;2.10;;;21.30;74.20;;;;;;4426392;32;20236;-75
2021/05/25 12:30:52;;;;;;;4.23;2.43;;;21.10;76.80;;;;;;4426559;32;20139;-75
2021/05/25 12:33:26;;;;;;;5.17;2.20;;;20.70;77.90;;;;;;4424821;32;20198;-75
2021/05/25 12:36:10;;;;;;;4.10;2.53;;;20.50;79.90;;;;;;4426649;32;20207;-75
2021/05/25 12:38:37;;;;;;;2.60;1.97;;;20.60;79.60;;;;;;4424877;32;20284;-73
2021/05/25 12:41:04;;;;;;;4.03;2.00;;;20.70;81.70;;;;;;4424974;32;20170;-73
2021/05/25 12:43:35;;;;;;;3.37;2.17;;;20.50;79.00;;;;;;4424131;32;20150;-73
2021/05/25 12:46:07;;;;;;;4.60;2.30;;;20.50;80.20;;;;;;4425560;32;20150;-72
2021/05/25 12:48:40;;;;;;;5.47;2.30;;;20.60;80.40;;;;;;4426046;32;20150;-73
2021/05/25 12:51:08;;;;;;;3.70;2.33;;;20.20;80.40;;;;;;4424356;32;20143;-73
2021/05/25 12:53:51;;;;;;;2.70;2.20;;;19.90;82.00;;;;;;4425618;32;20159;-72
2021/05/25 12:56:20;;;;;;;5.47;2.57;;;19.90;84.00;;;;;;4424898;32;20222;-72
2021/05/25 12:58:52;;;;;;;5.80;2.40;;;19.70;84.50;;;;;;4425762;32;20174;-73
2021/05/25 13:01:24;;;;;;;3.67;2.60;;;19.60;85.00;;;;;;4425341;32;20215;-74
2021/05/25 13:03:55;;;;;;;4.50;2.97;;;19.50;85.90;;;;;;4424047;32;20504;-72
2021/05/25 13:08:53;;;;;;;5.53;2.57;;;19.40;88.00;;;;;;4424005;32;20169;-73
2021/05/25 13:11:22;;;;;;;4.47;2.70;;;19.30;89.10;;;;;;4425725;32;20150;-74
2021/05/25 13:13:50;;;;;;;3.60;2.60;;;19.30;88.10;;;;;;4424258;32;20209;-76
2021/05/25 13:16:29;;;;;;;5.27;3.20;;;19.40;89.30;;;;;;4424178;32;20150;-72